Gilgit Weather



Gilgit's Current Weather

Temprature -3o clear sky

clear sky

Rain: 0 %

Min Temprature-3o
Max Temprature-3o
Humidity70
Wind Speed1.77 m/h
Sun Rise07:09:12
Sun Set17:19:38
Current Time: 23-Jan-2021 18:15:04
Lat/Lon: 35.9221, 74.3087




Gilgit's Geo Location



Gilgit's Weather Forecast

Time Overall Temp Min Temp Max Temp Humidity Wind Speed Rain
23-Jan-2021 (Sat)
20:00:00 scattered clouds -2.830 -4.060 -2.830 70 2.18 m/h 0 %
23:00:00 few clouds -5.270 -6.270 -5.270 63 2.5 m/h 0 %
24-Jan-2021 (Sun)
02:00:00 clear sky -7.600 -8.010 -7.600 57 2.61 m/h 0 %
05:00:00 clear sky -9.440 -9.500 -9.440 50 2.19 m/h 0 %
08:00:00 clear sky -9.320 -9.320 -9.320 49 1.81 m/h 0 %
11:00:00 clear sky -4.060 -4.060 -4.060 63 0.84 m/h 0 %
14:00:00 clear sky -2.760 -2.760 -2.760 68 0.4 m/h 0 %
17:00:00 clear sky -6.580 -6.580 -6.580 63 0.52 m/h 0 %
20:00:00 clear sky -8.170 -8.170 -8.170 54 1.29 m/h 0 %
23:00:00 clear sky -8.980 -8.980 -8.980 48 1.35 m/h 0 %
25-Jan-2021 (Mon)
02:00:00 clear sky -9.580 -9.580 -9.580 46 1.44 m/h 0 %
05:00:00 scattered clouds -10.080 -10.080 -10.080 47 1.47 m/h 0 %
08:00:00 broken clouds -9.660 -9.660 -9.660 50 1.27 m/h 0 %
11:00:00 broken clouds -4.520 -4.520 -4.520 65 0.51 m/h 0 %
14:00:00 overcast clouds -2.870 -2.870 -2.870 69 0.22 m/h 0 %
17:00:00 broken clouds -6.580 -6.580 -6.580 66 0.66 m/h 0 %
20:00:00 broken clouds -7.790 -7.790 -7.790 59 1.43 m/h 0 %
23:00:00 scattered clouds -8.690 -8.690 -8.690 56 1.35 m/h 0 %
26-Jan-2021 (Tue)
02:00:00 clear sky -9.320 -9.320 -9.320 55 1.38 m/h 0 %
05:00:00 clear sky -10.030 -10.030 -10.030 55 1.35 m/h 0 %
08:00:00 clear sky -9.600 -9.600 -9.600 56 1.38 m/h 0 %
11:00:00 clear sky -4.600 -4.600 -4.600 67 0.5 m/h 0 %
14:00:00 clear sky -2.980 -2.980 -2.980 71 0.32 m/h 0 %
17:00:00 clear sky -6.590 -6.590 -6.590 67 0.75 m/h 0 %
20:00:00 clear sky -7.950 -7.950 -7.950 61 1.39 m/h 0 %
23:00:00 clear sky -8.910 -8.910 -8.910 58 1.32 m/h 0 %
27-Jan-2021 (Wed)
02:00:00 clear sky -9.520 -9.520 -9.520 56 1.44 m/h 0 %
05:00:00 clear sky -10.270 -10.270 -10.270 56 1.48 m/h 0 %
08:00:00 clear sky -9.890 -9.890 -9.890 57 1.28 m/h 0 %
11:00:00 clear sky -4.920 -4.920 -4.920 67 0.43 m/h 0 %
14:00:00 clear sky -3.480 -3.480 -3.480 70 0.29 m/h 0 %
17:00:00 few clouds -7.220 -7.220 -7.220 66 0.76 m/h 0 %
20:00:00 few clouds -8.580 -8.580 -8.580 59 1.44 m/h 0 %
23:00:00 clear sky -9.540 -9.540 -9.540 56 1.36 m/h 0 %
28-Jan-2021 (Thu)
02:00:00 clear sky -10.140 -10.140 -10.140 54 1.49 m/h 0 %
05:00:00 clear sky -10.870 -10.870 -10.870 54 1.54 m/h 0 %
08:00:00 clear sky -10.480 -10.480 -10.480 55 1.35 m/h 0 %
11:00:00 clear sky -5.230 -5.230 -5.230 66 0.49 m/h 0 %
14:00:00 clear sky -3.530 -3.530 -3.530 69 0.15 m/h 0 %
17:00:00 clear sky -7.400 -7.400 -7.400 66 0.7 m/h 0 %

Famous Cities (60)